Voe, United Kingdom
Current Conditions -  °F | °C
As of 2:20 PM on Monday 20 Oct 2014 (Local Time) from EGPB Reporting Station
Rain Showers Rain Showers  
Wind Chill: 52°   Ceiling: Unl
Heat Index: 52°   Visibility: 6mi
Dew Point: 48°   Wind: 16mph
Humidity: 88%   Direction: 220°SW
Pressure: 29.53"   Gusts: NA
Location:  60.35°N, 1.27°W
Report Text: EGPB 201320Z 22014KT 9000 -SHRA FEW018 SCT026 11/09 Q1000 NOSIG
Loading
Personal Weather Stations






























Interactive Weather Map
Tropical Storm Tracking
New forecast layout! Learn more

10-Day Weather Forecast

Advertisements
Track Severe Weather on mobile